DEXEY KORD-
Flight info
| Callsign | DEXEY |
|---|---|
| Flight time | N/A |
| Altitude | |
| Route | |
| Aircraft | C172/L-VGD/C |
Departure
| Time | 2026-05-05 20:57 |
|---|---|
| Airport | Chicago O'Hare International Airport (KORD) |
Arrival
| Time | N/A |
|---|---|
| Airport | - |
| Time | Latitude | Longitude | Altitude | Speed | Heading |
|---|---|---|---|---|---|
| 2026-05-05 20:56 | 42.00283 | -87.91094 | 671 ft | 71 kts | 268° |
| 2026-05-05 20:56 | 42.00278 | -87.91790 | 718 ft | 76 kts | 269° |
| 2026-05-05 20:57 | 42.00265 | -87.92552 | 875 ft | 85 kts | 270° |
| 2026-05-05 20:57 | 42.00227 | -87.93368 | 1106 ft | 89 kts | 264° |
| 2026-05-05 20:57 | 42.00194 | -87.94193 | 1321 ft | 89 kts | 270° |
| 2026-05-05 20:57 | 42.00198 | -87.95049 | 1502 ft | 100 kts | 271° |
| 2026-05-05 20:58 | 42.00194 | -87.96051 | 1512 ft | 111 kts | 271° |
| 2026-05-05 20:58 | 42.00183 | -87.97079 | 1511 ft | 110 kts | 272° |
| 2026-05-05 20:58 | 41.99913 | -87.98020 | 1487 ft | 116 kts | 224° |
| 2026-05-05 20:58 | 41.99094 | -87.98340 | 1502 ft | 128 kts | 195° |
| 2026-05-05 20:59 | 41.98201 | -87.98546 | 1510 ft | 132 kts | 197° |
| 2026-05-05 20:59 | 41.97308 | -87.98775 | 1495 ft | 132 kts | 196° |
| 2026-05-05 20:59 | 41.96400 | -87.98864 | 1492 ft | 135 kts | 171° |
| 2026-05-05 20:59 | 41.95634 | -87.98106 | 1480 ft | 141 kts | 137° |
| 2026-05-05 21:00 | 41.94961 | -87.97140 | 1486 ft | 141 kts | 136° |
| 2026-05-05 21:00 | 41.94290 | -87.96180 | 1487 ft | 140 kts | 136° |
| 2026-05-05 21:00 | 41.93651 | -87.95235 | 1488 ft | 132 kts | 135° |
| 2026-05-05 21:00 | 41.93031 | -87.94352 | 1487 ft | 129 kts | 136° |
| 2026-05-05 21:01 | 41.92414 | -87.93487 | 1481 ft | 127 kts | 136° |
| 2026-05-05 21:01 | 41.91799 | -87.92649 | 1483 ft | 125 kts | 137° |
| 2026-05-05 21:01 | 41.91198 | -87.91794 | 1481 ft | 127 kts | 136° |
| 2026-05-05 21:01 | 41.90609 | -87.90947 | 1482 ft | 124 kts | 136° |
| 2026-05-05 21:02 | 41.90026 | -87.90096 | 1481 ft | 122 kts | 135° |
| 2026-05-05 21:02 | 41.89462 | -87.89293 | 1690 ft | 115 kts | 135° |
| 2026-05-05 21:02 | 41.88929 | -87.88520 | 1928 ft | 111 kts | 136° |
| 2026-05-05 21:02 | 41.88415 | -87.87768 | 2171 ft | 107 kts | 135° |
| 2026-05-05 21:03 | 41.87896 | -87.87003 | 2292 ft | 118 kts | 136° |
| 2026-05-05 21:03 | 41.87299 | -87.86153 | 2301 ft | 131 kts | 135° |
| 2026-05-05 21:03 | 41.86648 | -87.85269 | 2310 ft | 132 kts | 147° |
| 2026-05-05 21:03 | 41.85866 | -87.84683 | 2301 ft | 127 kts | 147° |
| 2026-05-05 21:04 | 41.85178 | -87.83955 | 2303 ft | 126 kts | 146° |
| 2026-05-05 21:04 | 41.84455 | -87.83303 | 2296 ft | 125 kts | 155° |
| 2026-05-05 21:04 | 41.83713 | -87.82759 | 2211 ft | 120 kts | 155° |
| 2026-05-05 21:04 | 41.82998 | -87.82221 | 2125 ft | 115 kts | 156° |
| 2026-05-05 21:05 | 41.82301 | -87.81689 | 2047 ft | 114 kts | 154° |
| 2026-05-05 21:05 | 41.81602 | -87.81173 | 1934 ft | 118 kts | 154° |
| 2026-05-05 21:05 | 41.80869 | -87.80647 | 1806 ft | 119 kts | 155° |
| 2026-05-05 21:05 | 41.80177 | -87.80124 | 1803 ft | 110 kts | 155° |
| 2026-05-05 21:06 | 41.79523 | -87.79626 | 1794 ft | 107 kts | 154° |
| 2026-05-05 21:06 | 41.78892 | -87.79139 | 1791 ft | 102 kts | 155° |
| 2026-05-05 21:06 | 41.78302 | -87.78674 | 1791 ft | 95 kts | 155° |
| 2026-05-05 21:06 | 41.77710 | -87.78163 | 1800 ft | 110 kts | 141° |
| 2026-05-05 21:07 | 41.77160 | -87.77390 | 1724 ft | 125 kts | 136° |
| 2026-05-05 21:07 | 41.76539 | -87.76504 | 1560 ft | 132 kts | 137° |
| 2026-05-05 21:07 | 41.75933 | -87.75605 | 1412 ft | 128 kts | 136° |
| 2026-05-05 21:07 | 41.75363 | -87.74752 | 1399 ft | 118 kts | 136° |
| 2026-05-05 21:08 | 41.75214 | -87.73715 | 1330 ft | 118 kts | 74° |
| 2026-05-05 21:08 | 41.75730 | -87.72927 | 1203 ft | 113 kts | 12° |
| 2026-05-05 21:08 | 41.76440 | -87.73136 | 1038 ft | 109 kts | 327° |
| 2026-05-05 21:08 | 41.77046 | -87.73642 | 887 ft | 89 kts | 323° |
| 2026-05-05 21:09 | 41.77523 | -87.74108 | 728 ft | 82 kts | 317° |
| 2026-05-05 21:09 | 41.77920 | -87.74632 | 676 ft | 77 kts | 309° |
| 2026-05-05 21:09 | 41.78233 | -87.75074 | 626 ft | 53 kts | 310° |
| 2026-05-05 21:09 | 41.78364 | -87.75267 | 618 ft | 17 kts | 313° |
| 2026-05-05 21:10 | 41.78402 | -87.75339 | 622 ft | 5 kts | 278° |
| 2026-05-05 21:10 | 41.78383 | -87.75358 | 618 ft | 5 kts | 171° |
| 2026-05-05 21:10 | 41.78334 | -87.75322 | 619 ft | 12 kts | 131° |
| 2026-05-05 21:10 | 41.78260 | -87.75217 | 619 ft | 19 kts | 135° |
| 2026-05-05 21:11 | 41.78171 | -87.75094 | 620 ft | 11 kts | 132° |
| 2026-05-05 21:11 | 41.78135 | -87.75110 | 620 ft | 5 kts | 248° |
| 2026-05-05 21:11 | 41.78139 | -87.75143 | 621 ft | 4 kts | 278° |
| 2026-05-05 21:11 | 41.78110 | -87.75155 | 620 ft | 4 kts | 141° |
| 2026-05-05 21:12 | 41.78109 | -87.75155 | 620 ft | 0 kts | 139° |
| 2026-05-05 21:12 | 41.78096 | -87.75178 | 626 ft | 11 kts | 315° |
| 2026-05-05 21:12 | 41.78115 | -87.75187 | 621 ft | 0 kts | 347° |